DLH1MA ENGM-LEBL
Flight info
| Callsign | DLH1MA |
|---|---|
| Flight time | N/A |
| Altitude | 32000 |
| Route | VIPPA DCT NIROD DCT LAGUM DCT KEMEG P601 EPILO DCT MIKRO DCT IPSUB DCT JUIST DCT SUSET DCT CIV DCT MEDIL/N0455F330 DCT KOVIN DCT DUCRA DCT RESMI DCT DEKOD DCT DISAK DCT DIRMO DCT VALKU DCT ATSUP DCT MINSO DCT DEGOL DCT PPG DCT ALBER |
| Aircraft | A21N/M-SDE2E3FGHIRWXY/LB1 |
Departure
| Time | 2026-05-06 16:18 |
|---|---|
| Airport | Oslo-Gardermoen International Airport (ENGM) |
Arrival
| Time | N/A |
|---|---|
| Airport | Josep Tarradellas Barcelona-El Prat Airport (LEBL) |
| Time | Latitude | Longitude | Altitude | Speed | Heading |
|---|---|---|---|---|---|
| 2026-05-06 15:30 | 60.19545 | 11.09579 | 686 ft | 0 kts | 196° |
| 2026-05-06 16:02 | 60.19566 | 11.09591 | 689 ft | 4 kts | 196° |
| 2026-05-06 16:02 | 60.19586 | 11.09603 | 683 ft | 1 kts | 196° |
| 2026-05-06 16:06 | 60.19584 | 11.09600 | 683 ft | 2 kts | 209° |
| 2026-05-06 16:06 | 60.19583 | 11.09560 | 686 ft | 4 kts | 291° |
| 2026-05-06 16:06 | 60.19609 | 11.09528 | 688 ft | 5 kts | 343° |
| 2026-05-06 16:06 | 60.19643 | 11.09508 | 685 ft | 5 kts | 343° |
| 2026-05-06 16:07 | 60.19672 | 11.09458 | 686 ft | 6 kts | 297° |
| 2026-05-06 16:07 | 60.19681 | 11.09409 | 684 ft | 3 kts | 282° |
| 2026-05-06 16:07 | 60.19687 | 11.09359 | 684 ft | 4 kts | 285° |
| 2026-05-06 16:07 | 60.19698 | 11.09283 | 684 ft | 7 kts | 286° |
| 2026-05-06 16:08 | 60.19713 | 11.09181 | 683 ft | 8 kts | 286° |
| 2026-05-06 16:08 | 60.19729 | 11.09067 | 686 ft | 9 kts | 286° |
| 2026-05-06 16:08 | 60.19746 | 11.08946 | 685 ft | 9 kts | 286° |
| 2026-05-06 16:08 | 60.19765 | 11.08815 | 683 ft | 10 kts | 286° |
| 2026-05-06 16:09 | 60.19803 | 11.08699 | 684 ft | 11 kts | 343° |
| 2026-05-06 16:09 | 60.19881 | 11.08732 | 683 ft | 12 kts | 17° |
| 2026-05-06 16:09 | 60.19971 | 11.08787 | 682 ft | 15 kts | 16° |
| 2026-05-06 16:09 | 60.20078 | 11.08845 | 686 ft | 17 kts | 16° |
| 2026-05-06 16:10 | 60.20195 | 11.08913 | 687 ft | 18 kts | 16° |
| 2026-05-06 16:10 | 60.20315 | 11.08982 | 685 ft | 18 kts | 16° |
| 2026-05-06 16:10 | 60.20438 | 11.09053 | 684 ft | 19 kts | 17° |
| 2026-05-06 16:10 | 60.20564 | 11.09128 | 680 ft | 19 kts | 15° |
| 2026-05-06 16:11 | 60.20693 | 11.09201 | 684 ft | 20 kts | 15° |
| 2026-05-06 16:11 | 60.20825 | 11.09278 | 685 ft | 20 kts | 17° |
| 2026-05-06 16:11 | 60.20959 | 11.09357 | 689 ft | 20 kts | 16° |
| 2026-05-06 16:11 | 60.21097 | 11.09435 | 692 ft | 21 kts | 15° |
| 2026-05-06 16:12 | 60.21236 | 11.09514 | 693 ft | 20 kts | 16° |
| 2026-05-06 16:12 | 60.21334 | 11.09571 | 691 ft | 13 kts | 16° |
| 2026-05-06 16:12 | 60.21412 | 11.09616 | 692 ft | 9 kts | 17° |
| 2026-05-06 16:12 | 60.21479 | 11.09637 | 690 ft | 10 kts | 353° |
| 2026-05-06 16:13 | 60.21533 | 11.09550 | 688 ft | 11 kts | 287° |
| 2026-05-06 16:13 | 60.21558 | 11.09424 | 689 ft | 5 kts | 288° |
| 2026-05-06 16:13 | 60.21558 | 11.09421 | 689 ft | 0 kts | 288° |
| 2026-05-06 16:16 | 60.21560 | 11.09408 | 689 ft | 3 kts | 288° |
| 2026-05-06 16:16 | 60.21571 | 11.09341 | 683 ft | 6 kts | 288° |
| 2026-05-06 16:16 | 60.21582 | 11.09249 | 686 ft | 7 kts | 269° |
| 2026-05-06 16:17 | 60.21565 | 11.09149 | 684 ft | 8 kts | 225° |
| 2026-05-06 16:17 | 60.21454 | 11.09076 | 687 ft | 41 kts | 196° |
| 2026-05-06 16:17 | 60.20954 | 11.08783 | 686 ft | 108 kts | 197° |
| 2026-05-06 16:17 | 60.20032 | 11.08260 | 681 ft | 165 kts | 196° |
| 2026-05-06 16:18 | 60.18841 | 11.07603 | 1049 ft | 179 kts | 196° |
| 2026-05-06 16:18 | 60.17638 | 11.07038 | 1788 ft | 176 kts | 194° |
| 2026-05-06 16:18 | 60.16488 | 11.06267 | 2392 ft | 175 kts | 216° |
| 2026-05-06 16:18 | 60.15826 | 11.04327 | 2853 ft | 171 kts | 259° |
| 2026-05-06 16:19 | 60.15569 | 11.01990 | 3427 ft | 173 kts | 253° |
| 2026-05-06 16:19 | 60.15125 | 10.99728 | 3933 ft | 178 kts | 248° |
| 2026-05-06 16:19 | 60.14593 | 10.97356 | 4253 ft | 195 kts | 246° |
| 2026-05-06 16:19 | 60.14008 | 10.94792 | 4659 ft | 209 kts | 246° |
| 2026-05-06 16:20 | 60.13376 | 10.92048 | 5006 ft | 227 kts | 246° |
| 2026-05-06 16:20 | 60.12686 | 10.89044 | 5262 ft | 248 kts | 246° |
| 2026-05-06 16:20 | 60.11944 | 10.85829 | 5784 ft | 259 kts | 246° |
| 2026-05-06 16:20 | 60.11188 | 10.82560 | 6479 ft | 264 kts | 245° |
| 2026-05-06 16:21 | 60.10404 | 10.79168 | 7207 ft | 265 kts | 245° |
| 2026-05-06 16:21 | 60.09626 | 10.75814 | 7952 ft | 267 kts | 245° |
| 2026-05-06 16:21 | 60.08841 | 10.72434 | 8687 ft | 268 kts | 245° |
| 2026-05-06 16:21 | 60.08052 | 10.69032 | 9394 ft | 271 kts | 245° |
| 2026-05-06 16:22 | 60.07254 | 10.65598 | 10057 ft | 273 kts | 245° |
| 2026-05-06 16:22 | 60.06439 | 10.62109 | 10418 ft | 288 kts | 244° |
| 2026-05-06 16:22 | 60.05357 | 10.58602 | 10665 ft | 306 kts | 231° |
| 2026-05-06 16:22 | 60.03720 | 10.55709 | 10873 ft | 325 kts | 213° |
| 2026-05-06 16:23 | 60.01578 | 10.53931 | 11083 ft | 345 kts | 195° |
| 2026-05-06 16:23 | 59.99154 | 10.53077 | 11307 ft | 362 kts | 191° |
| 2026-05-06 16:23 | 59.96615 | 10.52340 | 11536 ft | 375 kts | 191° |
| 2026-05-06 16:23 | 59.93995 | 10.51553 | 11798 ft | 385 kts | 192° |
| 2026-05-06 16:24 | 59.91323 | 10.50705 | 12214 ft | 388 kts | 193° |
| 2026-05-06 16:24 | 59.88660 | 10.49829 | 12653 ft | 390 kts | 193° |
| 2026-05-06 16:24 | 59.85978 | 10.48939 | 13102 ft | 392 kts | 194° |
| 2026-05-06 16:24 | 59.83283 | 10.48045 | 13573 ft | 394 kts | 194° |
| 2026-05-06 16:25 | 59.80575 | 10.47144 | 13958 ft | 396 kts | 194° |
| 2026-05-06 16:25 | 59.77854 | 10.46239 | 14303 ft | 397 kts | 194° |
| 2026-05-06 16:25 | 59.75125 | 10.45330 | 14681 ft | 399 kts | 194° |
| 2026-05-06 16:25 | 59.72381 | 10.44417 | 15134 ft | 401 kts | 194° |
| 2026-05-06 16:26 | 59.69619 | 10.43505 | 15634 ft | 403 kts | 194° |
| 2026-05-06 16:26 | 59.66843 | 10.42591 | 16145 ft | 406 kts | 194° |
| 2026-05-06 16:26 | 59.64043 | 10.41672 | 16639 ft | 408 kts | 194° |
| 2026-05-06 16:26 | 59.61274 | 10.40763 | 17100 ft | 410 kts | 194° |
| 2026-05-06 16:27 | 59.58406 | 10.39823 | 17554 ft | 413 kts | 194° |
| 2026-05-06 16:27 | 59.55605 | 10.38883 | 17993 ft | 415 kts | 194° |
| 2026-05-06 16:27 | 59.52753 | 10.37910 | 18381 ft | 417 kts | 195° |
| 2026-05-06 16:27 | 59.49885 | 10.36936 | 18753 ft | 419 kts | 195° |
| 2026-05-06 16:28 | 59.47019 | 10.35966 | 19092 ft | 420 kts | 194° |
| 2026-05-06 16:28 | 59.44124 | 10.34996 | 19444 ft | 422 kts | 194° |
| 2026-05-06 16:28 | 59.41225 | 10.34032 | 19814 ft | 423 kts | 194° |
| 2026-05-06 16:28 | 59.38316 | 10.33061 | 20169 ft | 425 kts | 194° |
| 2026-05-06 16:29 | 59.35398 | 10.32086 | 20500 ft | 426 kts | 194° |
| 2026-05-06 16:29 | 59.32471 | 10.31106 | 20860 ft | 427 kts | 195° |
| 2026-05-06 16:29 | 59.29537 | 10.30125 | 21268 ft | 429 kts | 195° |
| 2026-05-06 16:29 | 59.26592 | 10.29143 | 21675 ft | 430 kts | 195° |
| 2026-05-06 16:30 | 59.23633 | 10.28161 | 22034 ft | 432 kts | 195° |
| 2026-05-06 16:30 | 59.21672 | 10.27511 | 22251 ft | 432 kts | 195° |
| 2026-05-06 16:30 | 59.17692 | 10.26207 | 22619 ft | 435 kts | 194° |
| 2026-05-06 16:30 | 59.14658 | 10.25602 | 22929 ft | 440 kts | 190° |
| 2026-05-06 16:31 | 59.11597 | 10.25181 | 23228 ft | 442 kts | 189° |
| 2026-05-06 16:31 | 59.08516 | 10.24777 | 23554 ft | 444 kts | 189° |
| 2026-05-06 16:31 | 59.05441 | 10.24374 | 23967 ft | 442 kts | 189° |
| 2026-05-06 16:31 | 59.02382 | 10.23970 | 24400 ft | 439 kts | 190° |
| 2026-05-06 16:32 | 58.99342 | 10.23562 | 24849 ft | 436 kts | 190° |
| 2026-05-06 16:32 | 58.96366 | 10.23142 | 25273 ft | 432 kts | 191° |
| 2026-05-06 16:32 | 58.93433 | 10.22175 | 25697 ft | 423 kts | 200° |
| 2026-05-06 16:32 | 58.90670 | 10.20396 | 26078 ft | 417 kts | 205° |
| 2026-05-06 16:33 | 58.87959 | 10.18406 | 26419 ft | 416 kts | 205° |
| 2026-05-06 16:33 | 58.85263 | 10.16406 | 26822 ft | 415 kts | 206° |
| 2026-05-06 16:33 | 58.82561 | 10.14429 | 27203 ft | 414 kts | 205° |
| 2026-05-06 16:34 | 58.77188 | 10.10536 | 28000 ft | 410 kts | 205° |
| 2026-05-06 16:34 | 58.74523 | 10.08622 | 28388 ft | 409 kts | 205° |
| 2026-05-06 16:34 | 58.71857 | 10.06707 | 28770 ft | 407 kts | 205° |
| 2026-05-06 16:34 | 58.69211 | 10.04811 | 29147 ft | 405 kts | 205° |
| 2026-05-06 16:35 | 58.66575 | 10.02925 | 29526 ft | 404 kts | 205° |
| 2026-05-06 16:35 | 58.63937 | 10.01043 | 29839 ft | 402 kts | 205° |
| 2026-05-06 16:35 | 58.61315 | 9.99170 | 30085 ft | 403 kts | 205° |
| 2026-05-06 16:35 | 58.58691 | 9.97299 | 30330 ft | 402 kts | 205° |
| 2026-05-06 16:36 | 58.56063 | 9.95434 | 30575 ft | 402 kts | 205° |
| 2026-05-06 16:36 | 58.53479 | 9.93603 | 30819 ft | 401 kts | 205° |
| 2026-05-06 16:36 | 58.50865 | 9.91750 | 31078 ft | 400 kts | 205° |
| 2026-05-06 16:36 | 58.48255 | 9.89903 | 31335 ft | 399 kts | 205° |
| 2026-05-06 16:37 | 58.45659 | 9.88068 | 31594 ft | 398 kts | 205° |
| 2026-05-06 16:37 | 58.43067 | 9.86241 | 31858 ft | 396 kts | 205° |
| 2026-05-06 16:37 | 58.40480 | 9.84418 | 31992 ft | 398 kts | 205° |
| 2026-05-06 16:38 | 58.35243 | 9.80737 | 31979 ft | 402 kts | 205° |
| 2026-05-06 16:38 | 58.29995 | 9.77062 | 31965 ft | 402 kts | 205° |
| 2026-05-06 16:39 | 58.24744 | 9.73398 | 31962 ft | 402 kts | 205° |
| 2026-05-06 16:39 | 58.19491 | 9.69746 | 31964 ft | 402 kts | 205° |
| 2026-05-06 16:40 | 58.14235 | 9.66099 | 31962 ft | 402 kts | 205° |
| 2026-05-06 16:40 | 58.09003 | 9.62492 | 31933 ft | 404 kts | 204° |
| 2026-05-06 16:41 | 58.03626 | 9.59269 | 31961 ft | 406 kts | 201° |
| 2026-05-06 16:41 | 57.98218 | 9.56219 | 31965 ft | 406 kts | 201° |
| 2026-05-06 16:42 | 57.92806 | 9.53169 | 31964 ft | 406 kts | 201° |
| 2026-05-06 16:42 | 57.87398 | 9.50122 | 31964 ft | 406 kts | 201° |
| 2026-05-06 16:43 | 57.81988 | 9.47085 | 31947 ft | 406 kts | 201° |
| 2026-05-06 16:43 | 57.76563 | 9.44049 | 31963 ft | 407 kts | 201° |
| 2026-05-06 16:44 | 57.71143 | 9.41021 | 31965 ft | 407 kts | 201° |
| 2026-05-06 16:44 | 57.65718 | 9.37999 | 31967 ft | 407 kts | 201° |
| 2026-05-06 16:45 | 57.60284 | 9.34989 | 31968 ft | 407 kts | 201° |
| 2026-05-06 16:45 | 57.54859 | 9.31987 | 31940 ft | 407 kts | 201° |
| 2026-05-06 16:46 | 57.49459 | 9.29009 | 31966 ft | 407 kts | 201° |
| 2026-05-06 16:46 | 57.44019 | 9.26007 | 31970 ft | 407 kts | 201° |
| 2026-05-06 16:47 | 57.38578 | 9.23016 | 31967 ft | 407 kts | 201° |
| 2026-05-06 16:47 | 57.33140 | 9.20039 | 31970 ft | 408 kts | 201° |
| 2026-05-06 16:48 | 57.27697 | 9.17069 | 31968 ft | 408 kts | 200° |
| 2026-05-06 16:48 | 57.22254 | 9.14112 | 31963 ft | 408 kts | 200° |
| 2026-05-06 16:49 | 57.16803 | 9.11159 | 31971 ft | 408 kts | 200° |
| 2026-05-06 16:49 | 57.11391 | 9.08240 | 31961 ft | 408 kts | 200° |
| 2026-05-06 16:50 | 57.05934 | 9.05307 | 31965 ft | 408 kts | 200° |
| 2026-05-06 16:50 | 57.00477 | 9.02377 | 31953 ft | 410 kts | 200° |
| 2026-05-06 16:51 | 56.94998 | 8.99441 | 31961 ft | 410 kts | 200° |
| 2026-05-06 16:51 | 56.89516 | 8.96516 | 31959 ft | 410 kts | 200° |
| 2026-05-06 16:52 | 56.84037 | 8.93605 | 31956 ft | 410 kts | 200° |
| 2026-05-06 16:52 | 56.78559 | 8.90701 | 31936 ft | 410 kts | 200° |
| 2026-05-06 16:53 | 56.73064 | 8.87792 | 31955 ft | 411 kts | 200° |
| 2026-05-06 16:53 | 56.67599 | 8.84909 | 31957 ft | 411 kts | 200° |
| 2026-05-06 16:54 | 56.62108 | 8.82021 | 31963 ft | 411 kts | 200° |
| 2026-05-06 16:54 | 56.56604 | 8.79133 | 31959 ft | 411 kts | 200° |
| 2026-05-06 16:55 | 56.51989 | 8.76716 | 31927 ft | 413 kts | 199° |
| 2026-05-06 16:55 | 56.46499 | 8.73855 | 31938 ft | 414 kts | 199° |
| 2026-05-06 16:56 | 56.40961 | 8.70976 | 31947 ft | 414 kts | 199° |
| 2026-05-06 16:56 | 56.35419 | 8.68100 | 32100 ft | 415 kts | 199° |
| 2026-05-06 16:56 | 56.32650 | 8.66668 | 32323 ft | 414 kts | 199° |
| 2026-05-06 16:57 | 56.29874 | 8.65237 | 32526 ft | 414 kts | 199° |
| 2026-05-06 16:57 | 56.27103 | 8.63807 | 32700 ft | 414 kts | 199° |
| 2026-05-06 16:57 | 56.24335 | 8.62380 | 32871 ft | 414 kts | 199° |
| 2026-05-06 16:57 | 56.21563 | 8.60954 | 33032 ft | 414 kts | 199° |
| 2026-05-06 16:58 | 56.18792 | 8.59529 | 33205 ft | 414 kts | 199° |
| 2026-05-06 16:58 | 56.16017 | 8.58102 | 33386 ft | 414 kts | 199° |
| 2026-05-06 16:58 | 56.13251 | 8.56685 | 33587 ft | 414 kts | 199° |
| 2026-05-06 16:58 | 56.10486 | 8.55273 | 33751 ft | 413 kts | 199° |
| 2026-05-06 16:59 | 56.07716 | 8.53859 | 33901 ft | 413 kts | 199° |
| 2026-05-06 16:59 | 56.02196 | 8.51052 | 33967 ft | 412 kts | 199° |
| 2026-05-06 17:00 | 55.96681 | 8.48255 | 33942 ft | 417 kts | 199° |
| 2026-05-06 17:00 | 55.91083 | 8.45428 | 33940 ft | 418 kts | 199° |
| 2026-05-06 17:01 | 55.85487 | 8.42610 | 33940 ft | 418 kts | 199° |
| 2026-05-06 17:01 | 55.79937 | 8.39554 | 33937 ft | 417 kts | 201° |
| 2026-05-06 17:02 | 55.74439 | 8.36242 | 33922 ft | 417 kts | 201° |
| 2026-05-06 17:02 | 55.68940 | 8.32941 | 33937 ft | 417 kts | 201° |
| 2026-05-06 17:03 | 55.63469 | 8.29677 | 33934 ft | 417 kts | 201° |
| 2026-05-06 17:03 | 55.57967 | 8.26401 | 33933 ft | 417 kts | 201° |
| 2026-05-06 17:04 | 55.52468 | 8.23138 | 33940 ft | 417 kts | 201° |
| 2026-05-06 17:04 | 55.46949 | 8.19871 | 33926 ft | 419 kts | 201° |
| 2026-05-06 17:05 | 55.41417 | 8.16633 | 33937 ft | 419 kts | 200° |
| 2026-05-06 17:05 | 55.35819 | 8.13706 | 33937 ft | 420 kts | 199° |
| 2026-05-06 17:06 | 55.30220 | 8.10808 | 33937 ft | 420 kts | 199° |
| 2026-05-06 17:06 | 55.24616 | 8.07911 | 33924 ft | 421 kts | 199° |
| 2026-05-06 17:07 | 55.18987 | 8.05020 | 33935 ft | 422 kts | 199° |
| 2026-05-06 17:07 | 55.13356 | 8.02138 | 33934 ft | 422 kts | 199° |
| 2026-05-06 17:08 | 55.07721 | 7.99257 | 33931 ft | 422 kts | 199° |
| 2026-05-06 17:08 | 55.02085 | 7.96383 | 33934 ft | 422 kts | 199° |
| 2026-05-06 17:09 | 54.96590 | 7.92820 | 33927 ft | 422 kts | 205° |
| 2026-05-06 17:09 | 54.91190 | 7.88772 | 33931 ft | 423 kts | 205° |
| 2026-05-06 17:10 | 54.85745 | 7.84723 | 33939 ft | 429 kts | 205° |
| 2026-05-06 17:10 | 54.80225 | 7.80639 | 33938 ft | 433 kts | 205° |
| 2026-05-06 17:11 | 54.74659 | 7.76533 | 33920 ft | 436 kts | 205° |
| 2026-05-06 17:11 | 54.69065 | 7.72426 | 33989 ft | 437 kts | 205° |
| 2026-05-06 17:11 | 54.66277 | 7.70379 | 34161 ft | 433 kts | 205° |
| 2026-05-06 17:12 | 54.63516 | 7.68355 | 34379 ft | 429 kts | 205° |
| 2026-05-06 17:12 | 54.60779 | 7.66354 | 34604 ft | 425 kts | 205° |
| 2026-05-06 17:12 | 54.58068 | 7.64374 | 34836 ft | 421 kts | 205° |
| 2026-05-06 17:12 | 54.55380 | 7.62413 | 35074 ft | 418 kts | 205° |
| 2026-05-06 17:13 | 54.52714 | 7.60470 | 35317 ft | 414 kts | 205° |
| 2026-05-06 17:13 | 54.50070 | 7.58546 | 35535 ft | 410 kts | 205° |
| 2026-05-06 17:13 | 54.47459 | 7.56648 | 35767 ft | 405 kts | 205° |
| 2026-05-06 17:13 | 54.44873 | 7.54771 | 35942 ft | 402 kts | 205° |
| 2026-05-06 17:14 | 54.42298 | 7.52905 | 35964 ft | 402 kts | 205° |
| 2026-05-06 17:14 | 54.37122 | 7.49164 | 35934 ft | 405 kts | 205° |
| 2026-05-06 17:15 | 54.31916 | 7.45413 | 35939 ft | 406 kts | 205° |
| 2026-05-06 17:15 | 54.26697 | 7.41663 | 35918 ft | 408 kts | 204° |
| 2026-05-06 17:16 | 54.21461 | 7.37897 | 35923 ft | 409 kts | 204° |
| 2026-05-06 17:16 | 54.16235 | 7.34159 | 35926 ft | 410 kts | 204° |
| 2026-05-06 17:17 | 54.10955 | 7.30394 | 35923 ft | 412 kts | 204° |
| 2026-05-06 17:17 | 54.05651 | 7.26624 | 35921 ft | 414 kts | 204° |
| 2026-05-06 17:18 | 54.00317 | 7.22839 | 35919 ft | 416 kts | 204° |
| 2026-05-06 17:18 | 53.94961 | 7.19050 | 35924 ft | 418 kts | 204° |
| 2026-05-06 17:19 | 53.89574 | 7.15256 | 35919 ft | 420 kts | 204° |
| 2026-05-06 17:19 | 53.84160 | 7.11457 | 35923 ft | 422 kts | 204° |
| 2026-05-06 17:20 | 53.78723 | 7.07646 | 35925 ft | 424 kts | 204° |
| 2026-05-06 17:20 | 53.73261 | 7.03826 | 35922 ft | 426 kts | 204° |
| 2026-05-06 17:21 | 53.67782 | 7.00012 | 35921 ft | 427 kts | 204° |
| 2026-05-06 17:21 | 53.62269 | 6.96181 | 35920 ft | 429 kts | 204° |
| 2026-05-06 17:22 | 53.56781 | 6.92233 | 35919 ft | 429 kts | 209° |
| 2026-05-06 17:22 | 53.51904 | 6.86514 | 35910 ft | 428 kts | 219° |
| 2026-05-06 17:23 | 53.47216 | 6.80335 | 35917 ft | 429 kts | 218° |
| 2026-05-06 17:23 | 53.42491 | 6.74199 | 35914 ft | 430 kts | 218° |
| 2026-05-06 17:24 | 53.37738 | 6.68075 | 35924 ft | 432 kts | 218° |
| 2026-05-06 17:24 | 53.32964 | 6.61938 | 35910 ft | 432 kts | 218° |
| 2026-05-06 17:25 | 53.28218 | 6.55868 | 35917 ft | 433 kts | 218° |
| 2026-05-06 17:25 | 53.23397 | 6.49710 | 35916 ft | 433 kts | 218° |
| 2026-05-06 17:26 | 53.18605 | 6.43607 | 35917 ft | 434 kts | 218° |
| 2026-05-06 17:26 | 53.13847 | 6.37535 | 35918 ft | 434 kts | 218° |
| 2026-05-06 17:27 | 53.09047 | 6.31449 | 35923 ft | 434 kts | 218° |
| 2026-05-06 17:27 | 53.04225 | 6.25360 | 35915 ft | 435 kts | 218° |
| 2026-05-06 17:28 | 52.99406 | 6.19285 | 35919 ft | 435 kts | 218° |
| 2026-05-06 17:28 | 52.94584 | 6.13224 | 35915 ft | 435 kts | 218° |
| 2026-05-06 17:29 | 52.89747 | 6.07173 | 35909 ft | 435 kts | 218° |
| 2026-05-06 17:29 | 52.84915 | 6.01135 | 35906 ft | 435 kts | 218° |
| 2026-05-06 17:30 | 52.80080 | 5.95124 | 35912 ft | 435 kts | 218° |
| 2026-05-06 17:30 | 52.75240 | 5.89120 | 35915 ft | 435 kts | 218° |
| 2026-05-06 17:31 | 52.70397 | 5.83123 | 35907 ft | 435 kts | 218° |
| 2026-05-06 17:31 | 52.65581 | 5.77173 | 35910 ft | 436 kts | 218° |
| 2026-05-06 17:32 | 52.60718 | 5.71195 | 35902 ft | 436 kts | 217° |
| 2026-05-06 17:32 | 52.55848 | 5.65218 | 35907 ft | 437 kts | 217° |
| 2026-05-06 17:33 | 52.50969 | 5.59252 | 35906 ft | 437 kts | 217° |
| 2026-05-06 17:33 | 52.46089 | 5.53287 | 35906 ft | 437 kts | 217° |
| 2026-05-06 17:34 | 52.41201 | 5.47330 | 35906 ft | 438 kts | 217° |
| 2026-05-06 17:34 | 52.36305 | 5.41384 | 35900 ft | 438 kts | 217° |
| 2026-05-06 17:35 | 52.31370 | 5.35415 | 35906 ft | 438 kts | 217° |
| 2026-05-06 17:35 | 52.26466 | 5.29502 | 35905 ft | 438 kts | 217° |
| 2026-05-06 17:36 | 52.19134 | 5.20681 | 35908 ft | 438 kts | 217° |
| 2026-05-06 17:36 | 52.14225 | 5.14803 | 35905 ft | 438 kts | 217° |
| 2026-05-06 17:37 | 52.08977 | 5.09746 | 35909 ft | 439 kts | 209° |
| 2026-05-06 17:37 | 52.03575 | 5.05106 | 35909 ft | 439 kts | 209° |
| 2026-05-06 17:38 | 51.98169 | 5.00459 | 35907 ft | 439 kts | 209° |
| 2026-05-06 17:38 | 51.92769 | 4.95814 | 35900 ft | 440 kts | 208° |
| 2026-05-06 17:39 | 51.87350 | 4.91161 | 35909 ft | 442 kts | 208° |